sensor_id;sensor_type;location;lat;lon;timestamp;P1;durP1;ratioP1;P2;durP2;ratioP2
16967;SDS011;64862;54.398;10.126;2024-01-15T00:09:03;17.30;;;1.80;;
16967;SDS011;64862;54.398;10.126;2024-01-15T00:19:08;11.48;;;1.52;;
16967;SDS011;64862;54.398;10.126;2024-01-15T00:29:10;12.35;;;1.15;;
16967;SDS011;64862;54.398;10.126;2024-01-15T00:39:13;14.02;;;1.25;;
16967;SDS011;64862;54.398;10.126;2024-01-15T00:49:16;14.15;;;1.52;;
16967;SDS011;64862;54.398;10.126;2024-01-15T00:59:20;18.15;;;2.28;;
16967;SDS011;64862;54.398;10.126;2024-01-15T01:09:22;24.83;;;2.90;;
16967;SDS011;64862;54.398;10.126;2024-01-15T01:19:26;26.80;;;2.85;;
16967;SDS011;64862;54.398;10.126;2024-01-15T01:29:28;23.27;;;2.75;;
16967;SDS011;64862;54.398;10.126;2024-01-15T01:39:31;20.55;;;3.08;;
16967;SDS011;64862;54.398;10.126;2024-01-15T01:49:33;24.17;;;2.45;;
16967;SDS011;64862;54.398;10.126;2024-01-15T01:59:38;17.23;;;2.70;;
16967;SDS011;64862;54.398;10.126;2024-01-15T02:09:41;22.25;;;3.08;;
16967;SDS011;64862;54.398;10.126;2024-01-15T02:19:44;21.08;;;2.47;;
16967;SDS011;64862;54.398;10.126;2024-01-15T02:29:47;15.70;;;2.22;;
16967;SDS011;64862;54.398;10.126;2024-01-15T02:39:50;22.38;;;2.40;;
16967;SDS011;64862;54.398;10.126;2024-01-15T02:49:53;21.58;;;3.03;;
16967;SDS011;64862;54.398;10.126;2024-01-15T02:59:55;24.33;;;2.47;;
16967;SDS011;64862;54.398;10.126;2024-01-15T03:09:58;30.20;;;2.83;;
16967;SDS011;64862;54.398;10.126;2024-01-15T03:20:00;20.38;;;2.35;;
16967;SDS011;64862;54.398;10.126;2024-01-15T03:30:05;21.83;;;2.35;;
16967;SDS011;64862;54.398;10.126;2024-01-15T03:40:08;24.30;;;2.58;;
16967;SDS011;64862;54.398;10.126;2024-01-15T03:50:12;22.10;;;2.45;;
16967;SDS011;64862;54.398;10.126;2024-01-15T04:00:15;15.85;;;2.55;;
16967;SDS011;64862;54.398;10.126;2024-01-15T04:10:19;14.88;;;2.08;;
16967;SDS011;64862;54.398;10.126;2024-01-15T04:20:21;10.45;;;1.52;;
16967;SDS011;64862;54.398;10.126;2024-01-15T04:30:24;13.50;;;1.77;;
16967;SDS011;64862;54.398;10.126;2024-01-15T04:40:26;11.90;;;1.70;;
16967;SDS011;64862;54.398;10.126;2024-01-15T04:50:29;16.70;;;1.80;;
16967;SDS011;64862;54.398;10.126;2024-01-15T05:00:31;18.08;;;1.98;;
16967;SDS011;64862;54.398;10.126;2024-01-15T05:10:35;15.85;;;1.67;;
16967;SDS011;64862;54.398;10.126;2024-01-15T05:20:37;13.05;;;1.35;;
16967;SDS011;64862;54.398;10.126;2024-01-15T05:30:40;10.30;;;1.08;;
16967;SDS011;64862;54.398;10.126;2024-01-15T05:40:42;7.95;;;1.05;;
16967;SDS011;64862;54.398;10.126;2024-01-15T05:50:45;8.07;;;1.00;;
16967;SDS011;64862;54.398;10.126;2024-01-15T06:00:47;6.45;;;0.68;;
16967;SDS011;64862;54.398;10.126;2024-01-15T06:10:51;5.32;;;0.98;;
16967;SDS011;64862;54.398;10.126;2024-01-15T06:20:53;5.32;;;0.60;;
16967;SDS011;64862;54.398;10.126;2024-01-15T06:30:57;3.75;;;0.50;;
16967;SDS011;64862;54.398;10.126;2024-01-15T06:40:59;7.05;;;0.73;;
16967;SDS011;64862;54.398;10.126;2024-01-15T06:51:03;3.97;;;0.60;;
16967;SDS011;64862;54.398;10.126;2024-01-15T07:01:05;7.45;;;0.85;;
16967;SDS011;64862;54.398;10.126;2024-01-15T07:11:09;6.10;;;0.88;;
16967;SDS011;64862;54.398;10.126;2024-01-15T07:21:11;6.32;;;0.70;;
16967;SDS011;64862;54.398;10.126;2024-01-15T07:31:16;4.30;;;0.85;;
16967;SDS011;64862;54.398;10.126;2024-01-15T07:41:19;5.53;;;0.73;;
16967;SDS011;64862;54.398;10.126;2024-01-15T07:51:22;8.35;;;0.90;;
16967;SDS011;64862;54.398;10.126;2024-01-15T08:01:24;8.25;;;0.70;;
16967;SDS011;64862;54.398;10.126;2024-01-15T08:11:28;3.22;;;0.60;;
16967;SDS011;64862;54.398;10.126;2024-01-15T08:21:30;7.93;;;0.75;;
16967;SDS011;64862;54.398;10.126;2024-01-15T08:31:34;6.72;;;0.70;;
16967;SDS011;64862;54.398;10.126;2024-01-15T08:41:36;7.00;;;0.68;;
16967;SDS011;64862;54.398;10.126;2024-01-15T08:51:39;4.80;;;0.75;;
16967;SDS011;64862;54.398;10.126;2024-01-15T09:01:41;7.65;;;0.93;;
16967;SDS011;64862;54.398;10.126;2024-01-15T09:11:44;6.50;;;0.93;;
16967;SDS011;64862;54.398;10.126;2024-01-15T09:21:46;7.80;;;0.80;;
16967;SDS011;64862;54.398;10.126;2024-01-15T09:31:50;4.75;;;0.77;;
16967;SDS011;64862;54.398;10.126;2024-01-15T09:41:52;6.43;;;0.60;;
16967;SDS011;64862;54.398;10.126;2024-01-15T09:51:55;4.78;;;0.50;;
16967;SDS011;64862;54.398;10.126;2024-01-15T10:01:59;5.85;;;0.90;;
16967;SDS011;64862;54.398;10.126;2024-01-15T10:12:05;8.45;;;1.00;;
16967;SDS011;64862;54.398;10.126;2024-01-15T10:22:07;5.82;;;0.80;;
16967;SDS011;64862;54.398;10.126;2024-01-15T10:32:11;8.65;;;0.93;;
16967;SDS011;64862;54.398;10.126;2024-01-15T10:42:13;6.18;;;0.90;;
16967;SDS011;64862;54.398;10.126;2024-01-15T10:52:17;4.10;;;0.80;;
16967;SDS011;64862;54.398;10.126;2024-01-15T11:02:19;7.78;;;0.85;;
16967;SDS011;64862;54.398;10.126;2024-01-15T11:12:23;7.88;;;1.05;;
16967;SDS011;64862;54.398;10.126;2024-01-15T11:32:51;3.20;;;0.60;;
16967;SDS011;64862;54.398;10.126;2024-01-15T11:42:53;7.97;;;0.60;;
16967;SDS011;64862;54.398;10.126;2024-01-15T11:52:58;5.22;;;0.95;;
16967;SDS011;64862;54.398;10.126;2024-01-15T12:03:02;4.60;;;0.70;;
16967;SDS011;64862;54.398;10.126;2024-01-15T12:13:09;3.38;;;0.70;;
16967;SDS011;64862;54.398;10.126;2024-01-15T12:23:13;5.03;;;0.85;;
16967;SDS011;64862;54.398;10.126;2024-01-15T12:33:17;5.28;;;0.95;;
16967;SDS011;64862;54.398;10.126;2024-01-15T12:43:19;5.18;;;0.73;;
16967;SDS011;64862;54.398;10.126;2024-01-15T12:53:23;4.47;;;1.00;;
16967;SDS011;64862;54.398;10.126;2024-01-15T13:03:25;3.53;;;0.70;;
16967;SDS011;64862;54.398;10.126;2024-01-15T13:13:28;4.53;;;0.90;;
16967;SDS011;64862;54.398;10.126;2024-01-15T13:23:30;5.55;;;0.85;;
16967;SDS011;64862;54.398;10.126;2024-01-15T13:33:33;6.53;;;0.90;;
16967;SDS011;64862;54.398;10.126;2024-01-15T13:43:35;6.75;;;1.00;;
16967;SDS011;64862;54.398;10.126;2024-01-15T13:53:39;4.32;;;0.70;;
16967;SDS011;64862;54.398;10.126;2024-01-15T14:03:41;6.22;;;0.63;;
16967;SDS011;64862;54.398;10.126;2024-01-15T14:13:44;3.03;;;0.70;;
16967;SDS011;64862;54.398;10.126;2024-01-15T14:23:47;6.03;;;0.90;;
16967;SDS011;64862;54.398;10.126;2024-01-15T14:33:50;4.40;;;0.80;;
16967;SDS011;64862;54.398;10.126;2024-01-15T14:43:52;4.28;;;0.90;;
16967;SDS011;64862;54.398;10.126;2024-01-15T14:53:56;5.18;;;0.90;;
16967;SDS011;64862;54.398;10.126;2024-01-15T15:03:58;5.57;;;1.23;;
16967;SDS011;64862;54.398;10.126;2024-01-15T15:14:02;6.95;;;1.92;;
16967;SDS011;64862;54.398;10.126;2024-01-15T15:24:04;7.82;;;2.92;;
16967;SDS011;64862;54.398;10.126;2024-01-15T15:34:07;9.85;;;2.70;;
16967;SDS011;64862;54.398;10.126;2024-01-15T15:44:09;13.48;;;3.67;;
16967;SDS011;64862;54.398;10.126;2024-01-15T15:54:14;14.32;;;4.53;;
16967;SDS011;64862;54.398;10.126;2024-01-15T16:04:16;11.60;;;3.83;;
16967;SDS011;64862;54.398;10.126;2024-01-15T16:14:20;9.23;;;3.10;;
16967;SDS011;64862;54.398;10.126;2024-01-15T16:24:22;11.25;;;3.47;;
16967;SDS011;64862;54.398;10.126;2024-01-15T16:34:26;9.95;;;3.22;;
16967;SDS011;64862;54.398;10.126;2024-01-15T16:44:29;17.35;;;5.68;;
16967;SDS011;64862;54.398;10.126;2024-01-15T16:54:34;20.67;;;9.52;;
16967;SDS011;64862;54.398;10.126;2024-01-15T17:04:36;19.40;;;8.18;;
16967;SDS011;64862;54.398;10.126;2024-01-15T17:14:39;13.18;;;4.93;;
16967;SDS011;64862;54.398;10.126;2024-01-15T17:24:41;10.63;;;4.28;;
16967;SDS011;64862;54.398;10.126;2024-01-15T17:34:44;14.82;;;4.93;;
16967;SDS011;64862;54.398;10.126;2024-01-15T17:44:46;14.07;;;4.60;;
16967;SDS011;64862;54.398;10.126;2024-01-15T17:54:50;9.55;;;3.72;;
16967;SDS011;64862;54.398;10.126;2024-01-15T18:04:52;4.72;;;1.17;;
16967;SDS011;64862;54.398;10.126;2024-01-15T18:14:56;7.05;;;1.70;;
16967;SDS011;64862;54.398;10.126;2024-01-15T18:24:59;3.50;;;1.00;;
16967;SDS011;64862;54.398;10.126;2024-01-15T18:35:02;4.65;;;1.90;;
16967;SDS011;64862;54.398;10.126;2024-01-15T18:45:06;6.25;;;1.67;;
16967;SDS011;64862;54.398;10.126;2024-01-15T18:55:10;6.05;;;1.33;;
16967;SDS011;64862;54.398;10.126;2024-01-15T19:05:15;8.05;;;1.75;;
16967;SDS011;64862;54.398;10.126;2024-01-15T19:15:19;8.30;;;2.17;;
16967;SDS011;64862;54.398;10.126;2024-01-15T19:25:20;7.97;;;1.90;;
16967;SDS011;64862;54.398;10.126;2024-01-15T19:35:26;7.95;;;1.70;;
16967;SDS011;64862;54.398;10.126;2024-01-15T19:45:28;8.48;;;2.80;;
16967;SDS011;64862;54.398;10.126;2024-01-15T19:55:31;7.93;;;2.10;;
16967;SDS011;64862;54.398;10.126;2024-01-15T20:05:33;4.75;;;1.52;;
16967;SDS011;64862;54.398;10.126;2024-01-15T20:15:37;7.90;;;2.88;;
16967;SDS011;64862;54.398;10.126;2024-01-15T20:25:39;13.20;;;4.50;;
16967;SDS011;64862;54.398;10.126;2024-01-15T20:35:43;9.88;;;4.20;;
16967;SDS011;64862;54.398;10.126;2024-01-15T20:45:46;10.25;;;4.07;;
16967;SDS011;64862;54.398;10.126;2024-01-15T20:55:50;10.45;;;3.92;;
16967;SDS011;64862;54.398;10.126;2024-01-15T21:05:53;12.63;;;4.40;;
16967;SDS011;64862;54.398;10.126;2024-01-15T21:15:58;9.70;;;3.88;;
16967;SDS011;64862;54.398;10.126;2024-01-15T21:26:00;8.25;;;3.53;;
16967;SDS011;64862;54.398;10.126;2024-01-15T21:36:04;5.65;;;2.35;;
16967;SDS011;64862;54.398;10.126;2024-01-15T21:46:09;4.93;;;2.30;;
16967;SDS011;64862;54.398;10.126;2024-01-15T21:56:14;6.70;;;2.25;;
16967;SDS011;64862;54.398;10.126;2024-01-15T22:06:16;3.83;;;1.42;;
16967;SDS011;64862;54.398;10.126;2024-01-15T22:16:20;5.45;;;1.50;;
16967;SDS011;64862;54.398;10.126;2024-01-15T22:26:24;8.48;;;2.03;;
16967;SDS011;64862;54.398;10.126;2024-01-15T22:36:29;8.68;;;2.97;;
16967;SDS011;64862;54.398;10.126;2024-01-15T22:46:31;4.82;;;1.70;;
16967;SDS011;64862;54.398;10.126;2024-01-15T22:56:34;6.20;;;1.85;;
16967;SDS011;64862;54.398;10.126;2024-01-15T23:06:36;6.65;;;2.60;;
16967;SDS011;64862;54.398;10.126;2024-01-15T23:16:40;7.85;;;3.38;;
16967;SDS011;64862;54.398;10.126;2024-01-15T23:26:42;7.32;;;3.60;;
16967;SDS011;64862;54.398;10.126;2024-01-15T23:36:46;8.70;;;3.92;;
16967;SDS011;64862;54.398;10.126;2024-01-15T23:46:47;10.32;;;3.03;;
16967;SDS011;64862;54.398;10.126;2024-01-15T23:56:51;5.70;;;2.72;;
